sensor_id;sensor_type;location;lat;lon;timestamp;P1;durP1;ratioP1;P2;durP2;ratioP2
5898;SDS011;2975;50.956;6.962;2022-10-13T00:01:14;13.13;;;9.03;;
5898;SDS011;2975;50.956;6.962;2022-10-13T00:03:41;15.63;;;9.17;;
5898;SDS011;2975;50.956;6.962;2022-10-13T00:06:11;18.70;;;9.57;;
5898;SDS011;2975;50.956;6.962;2022-10-13T00:08:38;16.77;;;10.30;;
5898;SDS011;2975;50.956;6.962;2022-10-13T00:11:08;16.60;;;8.67;;
5898;SDS011;2975;50.956;6.962;2022-10-13T00:13:45;14.87;;;9.60;;
5898;SDS011;2975;50.956;6.962;2022-10-13T00:16:12;16.57;;;9.47;;
5898;SDS011;2975;50.956;6.962;2022-10-13T00:18:39;15.30;;;9.17;;
5898;SDS011;2975;50.956;6.962;2022-10-13T00:21:06;21.93;;;9.33;;
5898;SDS011;2975;50.956;6.962;2022-10-13T00:23:33;14.97;;;9.47;;
5898;SDS011;2975;50.956;6.962;2022-10-13T00:26:01;20.73;;;9.87;;
5898;SDS011;2975;50.956;6.962;2022-10-13T00:28:28;12.37;;;8.97;;
5898;SDS011;2975;50.956;6.962;2022-10-13T00:30:54;17.80;;;9.37;;
5898;SDS011;2975;50.956;6.962;2022-10-13T00:33:19;12.87;;;8.80;;
5898;SDS011;2975;50.956;6.962;2022-10-13T00:35:46;14.60;;;8.73;;
5898;SDS011;2975;50.956;6.962;2022-10-13T00:38:13;16.33;;;9.03;;
5898;SDS011;2975;50.956;6.962;2022-10-13T00:40:50;15.97;;;9.73;;
5898;SDS011;2975;50.956;6.962;2022-10-13T00:43:21;17.07;;;9.43;;
5898;SDS011;2975;50.956;6.962;2022-10-13T00:45:50;15.83;;;10.67;;
5898;SDS011;2975;50.956;6.962;2022-10-13T00:48:21;15.07;;;9.07;;
5898;SDS011;2975;50.956;6.962;2022-10-13T00:50:49;18.13;;;9.47;;
5898;SDS011;2975;50.956;6.962;2022-10-13T00:53:16;16.27;;;9.23;;
5898;SDS011;2975;50.956;6.962;2022-10-13T00:55:44;16.87;;;9.87;;
5898;SDS011;2975;50.956;6.962;2022-10-13T00:58:12;14.87;;;8.40;;
5898;SDS011;2975;50.956;6.962;2022-10-13T01:00:47;18.70;;;8.77;;
5898;SDS011;2975;50.956;6.962;2022-10-13T01:03:14;14.73;;;8.90;;
5898;SDS011;2975;50.956;6.962;2022-10-13T01:05:41;14.37;;;8.67;;
5898;SDS011;2975;50.956;6.962;2022-10-13T01:08:08;15.83;;;9.03;;
5898;SDS011;2975;50.956;6.962;2022-10-13T01:13:11;17.30;;;9.40;;
5898;SDS011;2975;50.956;6.962;2022-10-13T01:15:46;15.03;;;8.97;;
5898;SDS011;2975;50.956;6.962;2022-10-13T01:32:28;13.20;;;8.60;;
5898;SDS011;2975;50.956;6.962;2022-10-13T01:37:36;16.57;;;9.17;;
5898;SDS011;2975;50.956;6.962;2022-10-13T01:43:38;17.03;;;8.90;;
5898;SDS011;2975;50.956;6.962;2022-10-13T01:46:14;13.30;;;8.77;;
5898;SDS011;2975;50.956;6.962;2022-10-13T01:48:50;14.90;;;8.63;;
5898;SDS011;2975;50.956;6.962;2022-10-13T01:51:20;14.30;;;9.37;;
5898;SDS011;2975;50.956;6.962;2022-10-13T01:53:48;14.50;;;8.70;;
5898;SDS011;2975;50.956;6.962;2022-10-13T01:56:15;13.83;;;9.23;;
5898;SDS011;2975;50.956;6.962;2022-10-13T01:58:40;17.93;;;8.93;;
5898;SDS011;2975;50.956;6.962;2022-10-13T02:04:00;19.10;;;9.83;;
5898;SDS011;2975;50.956;6.962;2022-10-13T02:06:43;17.07;;;9.27;;
5898;SDS011;2975;50.956;6.962;2022-10-13T02:09:12;17.40;;;8.77;;
5898;SDS011;2975;50.956;6.962;2022-10-13T02:12:19;14.50;;;9.37;;
5898;SDS011;2975;50.956;6.962;2022-10-13T02:14:41;16.53;;;9.20;;
5898;SDS011;2975;50.956;6.962;2022-10-13T02:17:08;14.13;;;8.10;;
5898;SDS011;2975;50.956;6.962;2022-10-13T02:19:35;14.33;;;9.47;;
5898;SDS011;2975;50.956;6.962;2022-10-13T02:22:03;18.93;;;10.17;;
5898;SDS011;2975;50.956;6.962;2022-10-13T02:24:30;17.97;;;8.93;;
5898;SDS011;2975;50.956;6.962;2022-10-13T02:26:56;18.03;;;9.20;;
5898;SDS011;2975;50.956;6.962;2022-10-13T02:29:22;14.57;;;9.33;;
5898;SDS011;2975;50.956;6.962;2022-10-13T02:31:47;15.70;;;9.60;;
5898;SDS011;2975;50.956;6.962;2022-10-13T02:34:13;16.07;;;10.00;;
5898;SDS011;2975;50.956;6.962;2022-10-13T02:36:39;15.57;;;9.53;;
5898;SDS011;2975;50.956;6.962;2022-10-13T02:39:06;20.60;;;9.77;;
5898;SDS011;2975;50.956;6.962;2022-10-13T02:41:32;15.13;;;9.60;;
5898;SDS011;2975;50.956;6.962;2022-10-13T02:43:58;17.10;;;9.60;;
5898;SDS011;2975;50.956;6.962;2022-10-13T02:46:24;19.00;;;10.30;;
5898;SDS011;2975;50.956;6.962;2022-10-13T02:48:49;15.20;;;9.83;;
5898;SDS011;2975;50.956;6.962;2022-10-13T02:51:15;16.40;;;9.93;;
5898;SDS011;2975;50.956;6.962;2022-10-13T02:53:41;18.73;;;9.23;;
5898;SDS011;2975;50.956;6.962;2022-10-13T02:56:06;17.67;;;9.30;;
5898;SDS011;2975;50.956;6.962;2022-10-13T02:58:32;17.90;;;9.70;;
5898;SDS011;2975;50.956;6.962;2022-10-13T03:01:08;16.70;;;9.77;;
5898;SDS011;2975;50.956;6.962;2022-10-13T03:03:36;15.43;;;9.10;;
5898;SDS011;2975;50.956;6.962;2022-10-13T03:06:02;16.10;;;9.17;;
5898;SDS011;2975;50.956;6.962;2022-10-13T03:08:30;15.50;;;9.27;;
5898;SDS011;2975;50.956;6.962;2022-10-13T03:10:57;16.53;;;10.00;;
5898;SDS011;2975;50.956;6.962;2022-10-13T03:13:23;15.53;;;9.20;;
5898;SDS011;2975;50.956;6.962;2022-10-13T03:15:49;15.20;;;9.03;;
5898;SDS011;2975;50.956;6.962;2022-10-13T03:18:14;17.97;;;9.63;;
5898;SDS011;2975;50.956;6.962;2022-10-13T03:20:40;15.17;;;10.00;;
5898;SDS011;2975;50.956;6.962;2022-10-13T03:23:05;14.70;;;8.87;;
5898;SDS011;2975;50.956;6.962;2022-10-13T03:25:32;16.10;;;9.60;;
5898;SDS011;2975;50.956;6.962;2022-10-13T03:27:58;22.73;;;9.90;;
5898;SDS011;2975;50.956;6.962;2022-10-13T03:30:23;14.70;;;8.87;;
5898;SDS011;2975;50.956;6.962;2022-10-13T03:32:50;18.63;;;9.87;;
5898;SDS011;2975;50.956;6.962;2022-10-13T03:35:16;18.40;;;9.83;;
5898;SDS011;2975;50.956;6.962;2022-10-13T03:37:41;14.20;;;9.57;;
5898;SDS011;2975;50.956;6.962;2022-10-13T03:40:07;19.23;;;9.07;;
5898;SDS011;2975;50.956;6.962;2022-10-13T03:42:34;21.20;;;10.03;;
5898;SDS011;2975;50.956;6.962;2022-10-13T03:45:01;18.73;;;10.07;;
5898;SDS011;2975;50.956;6.962;2022-10-13T03:47:27;15.50;;;9.17;;
5898;SDS011;2975;50.956;6.962;2022-10-13T03:49:52;17.07;;;9.33;;
5898;SDS011;2975;50.956;6.962;2022-10-13T03:52:19;21.60;;;10.50;;
5898;SDS011;2975;50.956;6.962;2022-10-13T03:54:45;14.27;;;9.60;;
5898;SDS011;2975;50.956;6.962;2022-10-13T03:57:10;17.20;;;10.13;;
5898;SDS011;2975;50.956;6.962;2022-10-13T03:59:38;17.57;;;8.97;;
5898;SDS011;2975;50.956;6.962;2022-10-13T04:02:04;15.67;;;9.30;;
5898;SDS011;2975;50.956;6.962;2022-10-13T04:04:30;15.60;;;8.77;;
5898;SDS011;2975;50.956;6.962;2022-10-13T04:06:56;15.37;;;9.50;;
5898;SDS011;2975;50.956;6.962;2022-10-13T04:09:22;18.03;;;11.00;;
5898;SDS011;2975;50.956;6.962;2022-10-13T04:11:50;19.73;;;10.47;;
5898;SDS011;2975;50.956;6.962;2022-10-13T04:14:16;16.70;;;9.50;;
5898;SDS011;2975;50.956;6.962;2022-10-13T04:16:42;20.43;;;11.30;;
5898;SDS011;2975;50.956;6.962;2022-10-13T04:19:09;14.43;;;9.20;;
5898;SDS011;2975;50.956;6.962;2022-10-13T04:21:36;16.07;;;9.70;;
5898;SDS011;2975;50.956;6.962;2022-10-13T04:24:02;15.97;;;8.90;;
5898;SDS011;2975;50.956;6.962;2022-10-13T04:26:29;15.43;;;9.33;;
5898;SDS011;2975;50.956;6.962;2022-10-13T04:28:57;12.60;;;8.97;;
5898;SDS011;2975;50.956;6.962;2022-10-13T04:31:23;16.33;;;8.93;;
5898;SDS011;2975;50.956;6.962;2022-10-13T04:33:49;15.67;;;9.90;;
5898;SDS011;2975;50.956;6.962;2022-10-13T04:36:16;15.63;;;9.57;;
5898;SDS011;2975;50.956;6.962;2022-10-13T04:38:42;16.40;;;8.90;;
5898;SDS011;2975;50.956;6.962;2022-10-13T04:41:08;13.63;;;8.30;;
5898;SDS011;2975;50.956;6.962;2022-10-13T04:43:38;18.10;;;8.47;;
5898;SDS011;2975;50.956;6.962;2022-10-13T04:46:05;18.93;;;9.30;;
5898;SDS011;2975;50.956;6.962;2022-10-13T04:48:32;13.30;;;8.20;;
5898;SDS011;2975;50.956;6.962;2022-10-13T04:51:02;14.63;;;8.73;;
5898;SDS011;2975;50.956;6.962;2022-10-13T04:53:32;14.47;;;8.90;;
5898;SDS011;2975;50.956;6.962;2022-10-13T04:56:02;18.03;;;9.43;;
5898;SDS011;2975;50.956;6.962;2022-10-13T04:58:29;18.37;;;8.90;;
5898;SDS011;2975;50.956;6.962;2022-10-13T05:00:55;17.67;;;9.03;;
5898;SDS011;2975;50.956;6.962;2022-10-13T05:03:22;13.53;;;8.17;;
5898;SDS011;2975;50.956;6.962;2022-10-13T05:05:48;10.93;;;7.73;;
5898;SDS011;2975;50.956;6.962;2022-10-13T05:08:14;19.43;;;10.13;;
5898;SDS011;2975;50.956;6.962;2022-10-13T05:10:40;16.27;;;9.37;;
5898;SDS011;2975;50.956;6.962;2022-10-13T05:13:05;16.97;;;8.53;;
5898;SDS011;2975;50.956;6.962;2022-10-13T05:15:31;12.13;;;8.13;;
5898;SDS011;2975;50.956;6.962;2022-10-13T05:17:57;16.20;;;7.90;;
5898;SDS011;2975;50.956;6.962;2022-10-13T05:20:24;12.20;;;8.23;;
5898;SDS011;2975;50.956;6.962;2022-10-13T05:22:49;13.43;;;7.87;;
5898;SDS011;2975;50.956;6.962;2022-10-13T05:25:15;14.20;;;8.87;;
5898;SDS011;2975;50.956;6.962;2022-10-13T05:27:40;16.27;;;8.63;;
5898;SDS011;2975;50.956;6.962;2022-10-13T05:30:06;12.20;;;7.47;;
5898;SDS011;2975;50.956;6.962;2022-10-13T05:32:33;12.83;;;7.77;;
5898;SDS011;2975;50.956;6.962;2022-10-13T05:35:00;13.93;;;8.17;;
5898;SDS011;2975;50.956;6.962;2022-10-13T05:37:25;12.40;;;8.23;;
5898;SDS011;2975;50.956;6.962;2022-10-13T05:39:51;22.23;;;8.87;;
5898;SDS011;2975;50.956;6.962;2022-10-13T05:42:16;16.10;;;8.10;;
5898;SDS011;2975;50.956;6.962;2022-10-13T05:44:42;15.53;;;7.73;;
5898;SDS011;2975;50.956;6.962;2022-10-13T05:47:08;14.50;;;7.50;;
5898;SDS011;2975;50.956;6.962;2022-10-13T05:49:33;14.93;;;8.13;;
5898;SDS011;2975;50.956;6.962;2022-10-13T05:52:04;14.60;;;7.50;;
5898;SDS011;2975;50.956;6.962;2022-10-13T05:54:36;17.00;;;8.03;;
5898;SDS011;2975;50.956;6.962;2022-10-13T05:57:20;19.23;;;8.00;;
5898;SDS011;2975;50.956;6.962;2022-10-13T05:59:55;12.77;;;8.37;;
5898;SDS011;2975;50.956;6.962;2022-10-13T06:02:25;15.20;;;8.07;;
5898;SDS011;2975;50.956;6.962;2022-10-13T06:04:58;16.67;;;8.37;;
5898;SDS011;2975;50.956;6.962;2022-10-13T06:07:27;10.80;;;7.67;;
5898;SDS011;2975;50.956;6.962;2022-10-13T06:09:54;12.67;;;7.70;;
5898;SDS011;2975;50.956;6.962;2022-10-13T06:12:21;20.40;;;8.27;;
5898;SDS011;2975;50.956;6.962;2022-10-13T06:14:47;18.57;;;8.30;;
5898;SDS011;2975;50.956;6.962;2022-10-13T06:17:12;12.97;;;7.83;;
5898;SDS011;2975;50.956;6.962;2022-10-13T06:19:38;15.77;;;8.13;;
5898;SDS011;2975;50.956;6.962;2022-10-13T06:22:04;12.63;;;7.93;;
5898;SDS011;2975;50.956;6.962;2022-10-13T06:24:30;12.87;;;8.27;;
5898;SDS011;2975;50.956;6.962;2022-10-13T06:26:56;14.53;;;8.00;;
5898;SDS011;2975;50.956;6.962;2022-10-13T06:29:21;14.40;;;7.93;;
5898;SDS011;2975;50.956;6.962;2022-10-13T06:31:47;20.20;;;8.57;;
5898;SDS011;2975;50.956;6.962;2022-10-13T06:34:13;19.13;;;8.40;;
5898;SDS011;2975;50.956;6.962;2022-10-13T06:36:38;13.50;;;7.90;;
5898;SDS011;2975;50.956;6.962;2022-10-13T06:39:05;11.93;;;7.23;;
5898;SDS011;2975;50.956;6.962;2022-10-13T06:41:31;16.17;;;7.87;;
5898;SDS011;2975;50.956;6.962;2022-10-13T06:43:57;14.20;;;7.83;;
5898;SDS011;2975;50.956;6.962;2022-10-13T06:46:23;14.07;;;8.37;;
5898;SDS011;2975;50.956;6.962;2022-10-13T06:48:48;12.97;;;7.97;;
5898;SDS011;2975;50.956;6.962;2022-10-13T06:51:15;15.37;;;8.13;;
5898;SDS011;2975;50.956;6.962;2022-10-13T06:53:40;13.17;;;7.90;;
5898;SDS011;2975;50.956;6.962;2022-10-13T06:56:06;14.33;;;7.57;;
5898;SDS011;2975;50.956;6.962;2022-10-13T06:58:33;16.73;;;8.30;;
5898;SDS011;2975;50.956;6.962;2022-10-13T07:00:59;11.30;;;7.47;;
5898;SDS011;2975;50.956;6.962;2022-10-13T07:03:25;17.67;;;7.90;;
5898;SDS011;2975;50.956;6.962;2022-10-13T07:05:51;12.57;;;7.87;;
5898;SDS011;2975;50.956;6.962;2022-10-13T07:08:17;14.53;;;7.73;;
5898;SDS011;2975;50.956;6.962;2022-10-13T07:10:43;16.03;;;8.80;;
5898;SDS011;2975;50.956;6.962;2022-10-13T07:13:09;13.40;;;7.00;;
5898;SDS011;2975;50.956;6.962;2022-10-13T07:15:38;12.20;;;7.53;;
5898;SDS011;2975;50.956;6.962;2022-10-13T07:18:05;8.83;;;6.73;;
5898;SDS011;2975;50.956;6.962;2022-10-13T07:20:31;10.00;;;7.00;;
5898;SDS011;2975;50.956;6.962;2022-10-13T07:22:57;10.33;;;7.70;;
5898;SDS011;2975;50.956;6.962;2022-10-13T07:25:23;15.30;;;7.40;;
5898;SDS011;2975;50.956;6.962;2022-10-13T07:27:48;12.30;;;8.00;;
5898;SDS011;2975;50.956;6.962;2022-10-13T07:30:14;16.23;;;7.87;;
5898;SDS011;2975;50.956;6.962;2022-10-13T07:32:40;13.57;;;7.73;;
5898;SDS011;2975;50.956;6.962;2022-10-13T07:35:07;13.13;;;7.13;;
5898;SDS011;2975;50.956;6.962;2022-10-13T07:37:33;11.20;;;7.27;;
5898;SDS011;2975;50.956;6.962;2022-10-13T07:39:59;13.60;;;7.60;;
5898;SDS011;2975;50.956;6.962;2022-10-13T07:42:25;13.70;;;7.00;;
5898;SDS011;2975;50.956;6.962;2022-10-13T07:44:51;11.10;;;7.20;;
5898;SDS011;2975;50.956;6.962;2022-10-13T07:47:17;12.33;;;7.60;;
5898;SDS011;2975;50.956;6.962;2022-10-13T07:49:42;13.70;;;7.77;;
5898;SDS011;2975;50.956;6.962;2022-10-13T07:52:08;21.40;;;9.30;;
5898;SDS011;2975;50.956;6.962;2022-10-13T07:54:34;10.30;;;7.07;;
5898;SDS011;2975;50.956;6.962;2022-10-13T07:56:59;11.88;;;7.55;;
5898;SDS011;2975;50.956;6.962;2022-10-13T07:59:25;12.80;;;7.10;;
5898;SDS011;2975;50.956;6.962;2022-10-13T08:01:50;12.23;;;7.07;;
5898;SDS011;2975;50.956;6.962;2022-10-13T08:04:16;13.77;;;7.90;;
5898;SDS011;2975;50.956;6.962;2022-10-13T08:06:42;14.70;;;7.07;;
5898;SDS011;2975;50.956;6.962;2022-10-13T08:09:07;15.57;;;8.37;;
5898;SDS011;2975;50.956;6.962;2022-10-13T08:11:33;14.23;;;7.20;;
5898;SDS011;2975;50.956;6.962;2022-10-13T08:13:59;15.93;;;7.27;;
5898;SDS011;2975;50.956;6.962;2022-10-13T08:16:29;13.50;;;7.50;;
5898;SDS011;2975;50.956;6.962;2022-10-13T08:18:56;10.63;;;7.13;;
5898;SDS011;2975;50.956;6.962;2022-10-13T08:21:22;13.33;;;7.77;;
5898;SDS011;2975;50.956;6.962;2022-10-13T08:23:48;19.90;;;8.53;;
5898;SDS011;2975;50.956;6.962;2022-10-13T08:26:21;13.00;;;7.57;;
5898;SDS011;2975;50.956;6.962;2022-10-13T08:28:52;11.30;;;7.43;;
5898;SDS011;2975;50.956;6.962;2022-10-13T08:31:18;13.47;;;8.17;;
5898;SDS011;2975;50.956;6.962;2022-10-13T08:33:44;16.63;;;8.20;;
5898;SDS011;2975;50.956;6.962;2022-10-13T08:36:15;11.47;;;7.60;;
5898;SDS011;2975;50.956;6.962;2022-10-13T08:38:41;14.00;;;7.83;;
5898;SDS011;2975;50.956;6.962;2022-10-13T08:41:14;13.30;;;7.63;;
5898;SDS011;2975;50.956;6.962;2022-10-13T08:43:44;14.60;;;8.03;;
5898;SDS011;2975;50.956;6.962;2022-10-13T08:46:15;11.50;;;7.37;;
5898;SDS011;2975;50.956;6.962;2022-10-13T08:48:49;18.40;;;7.53;;
5898;SDS011;2975;50.956;6.962;2022-10-13T08:51:15;13.73;;;7.90;;
5898;SDS011;2975;50.956;6.962;2022-10-13T08:53:42;12.83;;;8.13;;
5898;SDS011;2975;50.956;6.962;2022-10-13T08:56:11;13.20;;;7.10;;
5898;SDS011;2975;50.956;6.962;2022-10-13T08:58:47;15.10;;;7.80;;
5898;SDS011;2975;50.956;6.962;2022-10-13T09:01:22;17.57;;;8.00;;
5898;SDS011;2975;50.956;6.962;2022-10-13T09:03:53;11.90;;;7.23;;
5898;SDS011;2975;50.956;6.962;2022-10-13T09:08:53;11.50;;;7.73;;
5898;SDS011;2975;50.956;6.962;2022-10-13T09:11:24;14.33;;;8.13;;
5898;SDS011;2975;50.956;6.962;2022-10-13T09:13:52;15.90;;;8.23;;
5898;SDS011;2975;50.956;6.962;2022-10-13T09:16:53;16.47;;;7.80;;
5898;SDS011;2975;50.956;6.962;2022-10-13T09:21:47;17.23;;;7.63;;
5898;SDS011;2975;50.956;6.962;2022-10-13T09:24:17;14.70;;;7.53;;
5898;SDS011;2975;50.956;6.962;2022-10-13T09:26:45;17.67;;;8.17;;
5898;SDS011;2975;50.956;6.962;2022-10-13T09:29:21;15.00;;;7.83;;
5898;SDS011;2975;50.956;6.962;2022-10-13T09:31:50;18.23;;;7.73;;
5898;SDS011;2975;50.956;6.962;2022-10-13T09:37:00;18.53;;;8.43;;
5898;SDS011;2975;50.956;6.962;2022-10-13T09:39:29;14.13;;;7.93;;
5898;SDS011;2975;50.956;6.962;2022-10-13T09:45:15;17.27;;;7.70;;
5898;SDS011;2975;50.956;6.962;2022-10-13T09:47:47;16.63;;;7.57;;
5898;SDS011;2975;50.956;6.962;2022-10-13T09:50:30;12.47;;;7.60;;
5898;SDS011;2975;50.956;6.962;2022-10-13T09:53:08;12.30;;;7.47;;
5898;SDS011;2975;50.956;6.962;2022-10-13T09:55:47;13.60;;;9.20;;
5898;SDS011;2975;50.956;6.962;2022-10-13T09:58:27;12.40;;;7.97;;
5898;SDS011;2975;50.956;6.962;2022-10-13T10:00:56;17.03;;;7.70;;
5898;SDS011;2975;50.956;6.962;2022-10-13T10:03:27;13.03;;;6.93;;
5898;SDS011;2975;50.956;6.962;2022-10-13T10:06:06;14.13;;;8.95;;
5898;SDS011;2975;50.956;6.962;2022-10-13T10:11:18;15.87;;;7.73;;
5898;SDS011;2975;50.956;6.962;2022-10-13T10:13:48;12.27;;;7.90;;
5898;SDS011;2975;50.956;6.962;2022-10-13T10:19:14;14.60;;;8.13;;
5898;SDS011;2975;50.956;6.962;2022-10-13T10:21:48;13.47;;;7.53;;
5898;SDS011;2975;50.956;6.962;2022-10-13T10:24:37;11.73;;;7.40;;
5898;SDS011;2975;50.956;6.962;2022-10-13T10:27:16;12.97;;;6.90;;
5898;SDS011;2975;50.956;6.962;2022-10-13T10:29:48;18.07;;;8.10;;
5898;SDS011;2975;50.956;6.962;2022-10-13T10:32:42;15.57;;;8.60;;
5898;SDS011;2975;50.956;6.962;2022-10-13T10:35:19;14.93;;;7.93;;
5898;SDS011;2975;50.956;6.962;2022-10-13T10:46:28;13.43;;;7.27;;
5898;SDS011;2975;50.956;6.962;2022-10-13T10:48:59;15.37;;;7.67;;
5898;SDS011;2975;50.956;6.962;2022-10-13T10:51:32;11.47;;;7.20;;
5898;SDS011;2975;50.956;6.962;2022-10-13T11:04:39;15.07;;;7.20;;
5898;SDS011;2975;50.956;6.962;2022-10-13T11:15:00;15.60;;;6.73;;
5898;SDS011;2975;50.956;6.962;2022-10-13T11:17:33;13.37;;;6.67;;
5898;SDS011;2975;50.956;6.962;2022-10-13T11:22:42;8.93;;;5.70;;
5898;SDS011;2975;50.956;6.962;2022-10-13T11:30:50;12.77;;;6.30;;
5898;SDS011;2975;50.956;6.962;2022-10-13T11:39:39;12.20;;;5.53;;
5898;SDS011;2975;50.956;6.962;2022-10-13T11:47:08;13.33;;;6.17;;
5898;SDS011;2975;50.956;6.962;2022-10-13T11:55:11;17.10;;;6.40;;
5898;SDS011;2975;50.956;6.962;2022-10-13T11:57:41;10.30;;;6.23;;
5898;SDS011;2975;50.956;6.962;2022-10-13T12:00:11;9.43;;;6.57;;
5898;SDS011;2975;50.956;6.962;2022-10-13T12:02:46;14.33;;;6.57;;
5898;SDS011;2975;50.956;6.962;2022-10-13T12:07:45;12.20;;;6.50;;
5898;SDS011;2975;50.956;6.962;2022-10-13T12:10:18;13.70;;;5.93;;
5898;SDS011;2975;50.956;6.962;2022-10-13T12:12:48;8.20;;;4.77;;
5898;SDS011;2975;50.956;6.962;2022-10-13T12:15:27;8.83;;;4.90;;
5898;SDS011;2975;50.956;6.962;2022-10-13T12:17:54;11.10;;;5.57;;
5898;SDS011;2975;50.956;6.962;2022-10-13T12:20:21;8.47;;;4.60;;
5898;SDS011;2975;50.956;6.962;2022-10-13T12:22:49;11.63;;;5.43;;
5898;SDS011;2975;50.956;6.962;2022-10-13T12:25:16;11.27;;;4.83;;
5898;SDS011;2975;50.956;6.962;2022-10-13T12:27:45;7.20;;;4.73;;
5898;SDS011;2975;50.956;6.962;2022-10-13T12:30:19;10.83;;;4.90;;
5898;SDS011;2975;50.956;6.962;2022-10-13T12:32:48;11.47;;;5.20;;
5898;SDS011;2975;50.956;6.962;2022-10-13T12:35:16;8.67;;;5.07;;
5898;SDS011;2975;50.956;6.962;2022-10-13T12:37:43;10.90;;;5.03;;
5898;SDS011;2975;50.956;6.962;2022-10-13T12:40:12;8.98;;;5.45;;
5898;SDS011;2975;50.956;6.962;2022-10-13T12:42:40;9.02;;;5.20;;
5898;SDS011;2975;50.956;6.962;2022-10-13T12:45:12;8.20;;;4.87;;
5898;SDS011;2975;50.956;6.962;2022-10-13T12:52:46;11.07;;;4.70;;
5898;SDS011;2975;50.956;6.962;2022-10-13T12:55:13;8.20;;;4.30;;
5898;SDS011;2975;50.956;6.962;2022-10-13T12:57:43;5.53;;;3.93;;
5898;SDS011;2975;50.956;6.962;2022-10-13T13:02:53;13.67;;;5.60;;
5898;SDS011;2975;50.956;6.962;2022-10-13T13:05:31;9.40;;;5.33;;
5898;SDS011;2975;50.956;6.962;2022-10-13T13:07:59;10.37;;;6.10;;
5898;SDS011;2975;50.956;6.962;2022-10-13T13:10:26;8.87;;;5.53;;
5898;SDS011;2975;50.956;6.962;2022-10-13T13:12:52;9.37;;;5.20;;
5898;SDS011;2975;50.956;6.962;2022-10-13T13:18:20;9.47;;;5.47;;
5898;SDS011;2975;50.956;6.962;2022-10-13T13:20:50;11.68;;;5.90;;
5898;SDS011;2975;50.956;6.962;2022-10-13T13:23:16;9.23;;;5.03;;
5898;SDS011;2975;50.956;6.962;2022-10-13T13:25:43;8.70;;;5.87;;
5898;SDS011;2975;50.956;6.962;2022-10-13T13:28:10;12.13;;;5.70;;
5898;SDS011;2975;50.956;6.962;2022-10-13T13:30:38;7.90;;;5.77;;
5898;SDS011;2975;50.956;6.962;2022-10-13T13:33:04;9.97;;;5.73;;
5898;SDS011;2975;50.956;6.962;2022-10-13T13:35:30;10.10;;;5.50;;
5898;SDS011;2975;50.956;6.962;2022-10-13T13:37:56;8.77;;;5.22;;
5898;SDS011;2975;50.956;6.962;2022-10-13T13:40:23;9.20;;;5.77;;
5898;SDS011;2975;50.956;6.962;2022-10-13T13:42:50;13.10;;;6.13;;
5898;SDS011;2975;50.956;6.962;2022-10-13T13:45:17;7.00;;;5.70;;
5898;SDS011;2975;50.956;6.962;2022-10-13T13:47:44;14.53;;;6.20;;
5898;SDS011;2975;50.956;6.962;2022-10-13T13:50:18;8.10;;;5.27;;
5898;SDS011;2975;50.956;6.962;2022-10-13T13:52:46;9.13;;;5.57;;
5898;SDS011;2975;50.956;6.962;2022-10-13T13:55:12;8.43;;;5.70;;
5898;SDS011;2975;50.956;6.962;2022-10-13T13:57:38;10.77;;;5.70;;
5898;SDS011;2975;50.956;6.962;2022-10-13T14:00:04;10.53;;;5.70;;
5898;SDS011;2975;50.956;6.962;2022-10-13T14:02:30;11.60;;;6.10;;
5898;SDS011;2975;50.956;6.962;2022-10-13T14:04:56;11.93;;;6.90;;
5898;SDS011;2975;50.956;6.962;2022-10-13T14:07:22;12.20;;;6.90;;
5898;SDS011;2975;50.956;6.962;2022-10-13T14:09:48;11.83;;;7.60;;
5898;SDS011;2975;50.956;6.962;2022-10-13T14:12:14;14.33;;;6.43;;
5898;SDS011;2975;50.956;6.962;2022-10-13T14:14:39;13.57;;;8.57;;
5898;SDS011;2975;50.956;6.962;2022-10-13T14:17:05;14.83;;;7.60;;
5898;SDS011;2975;50.956;6.962;2022-10-13T14:19:31;14.73;;;7.53;;
5898;SDS011;2975;50.956;6.962;2022-10-13T14:21:56;13.43;;;7.60;;
5898;SDS011;2975;50.956;6.962;2022-10-13T14:24:22;10.07;;;7.13;;
5898;SDS011;2975;50.956;6.962;2022-10-13T14:26:48;14.17;;;7.43;;
5898;SDS011;2975;50.956;6.962;2022-10-13T14:29:14;10.50;;;7.13;;
5898;SDS011;2975;50.956;6.962;2022-10-13T14:31:40;11.40;;;7.40;;
5898;SDS011;2975;50.956;6.962;2022-10-13T14:34:05;11.30;;;7.07;;
5898;SDS011;2975;50.956;6.962;2022-10-13T14:36:31;12.53;;;7.00;;
5898;SDS011;2975;50.956;6.962;2022-10-13T14:38:57;11.37;;;6.70;;
5898;SDS011;2975;50.956;6.962;2022-10-13T14:41:23;11.60;;;6.73;;
5898;SDS011;2975;50.956;6.962;2022-10-13T14:43:51;16.67;;;8.07;;
5898;SDS011;2975;50.956;6.962;2022-10-13T14:46:19;10.67;;;7.03;;
5898;SDS011;2975;50.956;6.962;2022-10-13T14:48:45;13.97;;;7.70;;
5898;SDS011;2975;50.956;6.962;2022-10-13T14:51:11;14.97;;;7.87;;
5898;SDS011;2975;50.956;6.962;2022-10-13T14:53:39;12.40;;;7.13;;
5898;SDS011;2975;50.956;6.962;2022-10-13T14:56:22;12.47;;;7.37;;
5898;SDS011;2975;50.956;6.962;2022-10-13T14:58:53;12.07;;;7.00;;
5898;SDS011;2975;50.956;6.962;2022-10-13T15:01:20;9.90;;;7.47;;
5898;SDS011;2975;50.956;6.962;2022-10-13T15:03:46;12.80;;;7.17;;
5898;SDS011;2975;50.956;6.962;2022-10-13T15:06:13;12.40;;;7.43;;
5898;SDS011;2975;50.956;6.962;2022-10-13T15:08:40;10.73;;;7.40;;
5898;SDS011;2975;50.956;6.962;2022-10-13T15:11:07;17.10;;;7.87;;
5898;SDS011;2975;50.956;6.962;2022-10-13T15:13:32;11.10;;;6.90;;
5898;SDS011;2975;50.956;6.962;2022-10-13T15:15:58;12.53;;;7.27;;
5898;SDS011;2975;50.956;6.962;2022-10-13T15:18:25;11.20;;;7.13;;
5898;SDS011;2975;50.956;6.962;2022-10-13T15:20:52;12.13;;;7.47;;
5898;SDS011;2975;50.956;6.962;2022-10-13T15:23:18;12.00;;;7.23;;
5898;SDS011;2975;50.956;6.962;2022-10-13T15:25:54;11.30;;;7.07;;
5898;SDS011;2975;50.956;6.962;2022-10-13T15:28:22;13.97;;;6.87;;
5898;SDS011;2975;50.956;6.962;2022-10-13T15:30:49;12.67;;;7.47;;
5898;SDS011;2975;50.956;6.962;2022-10-13T15:33:15;14.53;;;7.27;;
5898;SDS011;2975;50.956;6.962;2022-10-13T15:35:41;16.47;;;7.90;;
5898;SDS011;2975;50.956;6.962;2022-10-13T15:38:07;13.83;;;8.83;;
5898;SDS011;2975;50.956;6.962;2022-10-13T15:40:32;11.20;;;7.70;;
5898;SDS011;2975;50.956;6.962;2022-10-13T15:43:02;15.43;;;7.27;;
5898;SDS011;2975;50.956;6.962;2022-10-13T15:45:28;13.93;;;7.00;;
5898;SDS011;2975;50.956;6.962;2022-10-13T15:47:54;12.20;;;7.43;;
5898;SDS011;2975;50.956;6.962;2022-10-13T15:50:21;10.63;;;6.90;;
5898;SDS011;2975;50.956;6.962;2022-10-13T15:52:47;15.03;;;8.60;;
5898;SDS011;2975;50.956;6.962;2022-10-13T15:55:13;13.17;;;7.20;;
5898;SDS011;2975;50.956;6.962;2022-10-13T15:57:39;14.40;;;8.67;;
5898;SDS011;2975;50.956;6.962;2022-10-13T16:00:05;13.60;;;6.97;;
5898;SDS011;2975;50.956;6.962;2022-10-13T16:02:31;12.90;;;6.90;;
5898;SDS011;2975;50.956;6.962;2022-10-13T16:04:57;14.10;;;6.70;;
5898;SDS011;2975;50.956;6.962;2022-10-13T16:07:28;16.97;;;6.50;;
5898;SDS011;2975;50.956;6.962;2022-10-13T16:09:54;10.97;;;6.53;;
5898;SDS011;2975;50.956;6.962;2022-10-13T16:12:20;12.50;;;6.33;;
5898;SDS011;2975;50.956;6.962;2022-10-13T16:14:48;10.83;;;6.63;;
5898;SDS011;2975;50.956;6.962;2022-10-13T16:17:14;11.33;;;6.80;;
5898;SDS011;2975;50.956;6.962;2022-10-13T16:19:39;10.03;;;6.03;;
5898;SDS011;2975;50.956;6.962;2022-10-13T16:22:05;13.57;;;6.97;;
5898;SDS011;2975;50.956;6.962;2022-10-13T16:24:31;10.03;;;6.63;;
5898;SDS011;2975;50.956;6.962;2022-10-13T16:26:57;13.97;;;7.00;;
5898;SDS011;2975;50.956;6.962;2022-10-13T16:29:23;17.13;;;7.60;;
5898;SDS011;2975;50.956;6.962;2022-10-13T16:31:49;14.90;;;7.73;;
5898;SDS011;2975;50.956;6.962;2022-10-13T16:34:15;14.10;;;8.03;;
5898;SDS011;2975;50.956;6.962;2022-10-13T16:36:40;12.77;;;6.93;;
5898;SDS011;2975;50.956;6.962;2022-10-13T16:39:06;13.60;;;7.17;;
5898;SDS011;2975;50.956;6.962;2022-10-13T16:41:31;11.50;;;7.23;;
5898;SDS011;2975;50.956;6.962;2022-10-13T16:43:57;16.93;;;7.90;;
5898;SDS011;2975;50.956;6.962;2022-10-13T16:46:23;13.67;;;7.33;;
5898;SDS011;2975;50.956;6.962;2022-10-13T16:48:48;14.10;;;8.47;;
5898;SDS011;2975;50.956;6.962;2022-10-13T16:51:15;17.40;;;7.90;;
5898;SDS011;2975;50.956;6.962;2022-10-13T16:53:45;13.33;;;7.77;;
5898;SDS011;2975;50.956;6.962;2022-10-13T16:56:13;13.53;;;7.73;;